createdAt,value
2023-02-18T00:00:28.420Z,10.77
2023-02-18T00:01:00.220Z,10.77
2023-02-18T00:01:31.488Z,10.77
2023-02-18T00:02:04.368Z,10.77
2023-02-18T00:02:35.503Z,10.77
2023-02-18T00:03:08.392Z,10.77
2023-02-18T00:03:39.459Z,10.77
2023-02-18T00:04:12.468Z,10.77
2023-02-18T00:04:43.575Z,10.77
2023-02-18T00:05:16.597Z,10.77
2023-02-18T00:05:47.471Z,10.77
2023-02-18T00:06:20.301Z,10.77
2023-02-18T00:06:51.303Z,10.77
2023-02-18T00:07:24.538Z,10.77
2023-02-18T00:07:55.408Z,10.77
2023-02-18T00:08:28.242Z,10.77
2023-02-18T00:08:59.416Z,10.77
2023-02-18T00:09:32.507Z,10.77
2023-02-18T00:10:03.706Z,10.77
2023-02-18T00:10:36.383Z,10.72
2023-02-18T00:11:07.513Z,10.72
2023-02-18T00:11:40.279Z,10.72
2023-02-18T00:12:11.568Z,10.72
2023-02-18T00:12:44.329Z,10.72
2023-02-18T00:13:15.465Z,10.72
2023-02-18T00:13:48.247Z,10.72
2023-02-18T00:14:19.394Z,10.72
2023-02-18T00:14:52.422Z,10.72
2023-02-18T00:15:24.478Z,10.72
2023-02-18T00:15:56.878Z,10.72
2023-02-18T00:16:27.486Z,10.72
2023-02-18T00:17:00.422Z,10.72
2023-02-18T00:17:31.557Z,10.72
2023-02-18T00:18:04.247Z,10.72
2023-02-18T00:18:35.534Z,10.72
2023-02-18T00:19:08.370Z,10.72
2023-02-18T00:19:39.514Z,10.72
2023-02-18T00:20:12.649Z,10.72
2023-02-18T00:20:43.503Z,10.72
2023-02-18T00:21:16.388Z,10.72
2023-02-18T00:21:47.369Z,10.72
2023-02-18T00:22:20.437Z,10.72
2023-02-18T00:22:51.569Z,10.72
2023-02-18T00:23:24.500Z,10.72
2023-02-18T00:23:55.400Z,10.72
2023-02-18T00:24:28.339Z,10.72
2023-02-18T00:24:59.695Z,10.72
2023-02-18T00:25:32.712Z,10.72
2023-02-18T00:26:03.408Z,10.72
2023-02-18T00:26:36.380Z,10.72
2023-02-18T00:27:07.577Z,10.72
2023-02-18T00:27:40.440Z,10.72
2023-02-18T00:28:11.473Z,10.72
2023-02-18T00:28:44.312Z,10.72
2023-02-18T00:29:15.347Z,10.72
2023-02-18T00:29:48.279Z,10.72
2023-02-18T00:30:20.633Z,10.72
2023-02-18T00:30:52.252Z,10.72
2023-02-18T00:31:23.515Z,10.72
2023-02-18T00:31:56.683Z,10.72
2023-02-18T00:32:27.507Z,10.72
2023-02-18T00:33:00.338Z,10.72
2023-02-18T00:33:31.484Z,10.72
2023-02-18T00:34:04.258Z,10.72
2023-02-18T00:34:35.380Z,10.72
2023-02-18T00:35:08.442Z,10.77
2023-02-18T00:35:39.515Z,10.77
2023-02-18T00:36:12.372Z,10.77
2023-02-18T00:36:43.467Z,10.77
2023-02-18T00:37:16.360Z,10.77
2023-02-18T00:37:47.497Z,10.77
2023-02-18T00:38:20.149Z,10.77
2023-02-18T00:38:51.433Z,10.77
2023-02-18T00:39:24.331Z,10.77
2023-02-18T00:39:55.581Z,10.77
2023-02-18T00:40:29.072Z,10.77
2023-02-18T00:40:59.592Z,10.77
2023-02-18T00:41:32.486Z,10.77
2023-02-18T00:42:03.392Z,10.77
2023-02-18T00:42:36.382Z,10.77
2023-02-18T00:43:07.546Z,10.77
2023-02-18T00:43:40.390Z,10.77
2023-02-18T00:44:11.421Z,10.77
2023-02-18T00:44:44.277Z,10.77
2023-02-18T00:45:16.259Z,10.77
2023-02-18T00:45:48.410Z,10.77
2023-02-18T00:46:19.479Z,10.77
2023-02-18T00:46:52.370Z,10.77
2023-02-18T00:47:23.379Z,10.77
2023-02-18T00:47:56.225Z,10.77
2023-02-18T00:48:27.485Z,10.77
2023-02-18T00:49:00.376Z,10.77
2023-02-18T00:49:31.451Z,10.77
2023-02-18T00:50:04.624Z,10.77
2023-02-18T00:50:35.596Z,10.77
2023-02-18T00:51:08.186Z,10.77
2023-02-18T00:51:39.555Z,10.77
2023-02-18T00:52:12.309Z,10.77
2023-02-18T00:52:43.626Z,10.77
2023-02-18T00:53:16.185Z,10.77
2023-02-18T00:53:47.505Z,10.77
2023-02-18T00:54:20.312Z,10.77
2023-02-18T00:54:51.436Z,10.77
2023-02-18T00:55:24.503Z,10.77
2023-02-18T00:55:55.462Z,10.77
2023-02-18T00:56:28.194Z,10.77
2023-02-18T00:56:59.474Z,10.77
2023-02-18T00:57:32.377Z,10.77
2023-02-18T00:58:03.645Z,10.77
2023-02-18T00:58:36.374Z,10.77
2023-02-18T00:59:07.453Z,10.77
2023-02-18T00:59:40.291Z,10.77
2023-02-18T01:00:12.392Z,10.77
2023-02-18T01:00:44.235Z,10.77
2023-02-18T01:01:15.656Z,10.77
2023-02-18T01:01:48.450Z,10.77
2023-02-18T01:02:19.535Z,10.77
2023-02-18T01:02:52.366Z,10.77
2023-02-18T01:03:23.611Z,10.77
2023-02-18T01:03:56.116Z,10.77
2023-02-18T01:04:27.518Z,10.77
2023-02-18T01:05:00.236Z,10.77
2023-02-18T01:05:31.960Z,10.77
2023-02-18T01:06:04.278Z,10.77
2023-02-18T01:06:35.289Z,10.77
2023-02-18T01:07:08.357Z,10.77
2023-02-18T01:07:39.404Z,10.77
2023-02-18T01:08:12.284Z,10.72
2023-02-18T01:08:43.652Z,10.72
2023-02-18T01:09:16.166Z,10.72
2023-02-18T01:09:47.424Z,10.72
2023-02-18T01:10:20.635Z,10.72
2023-02-18T01:10:51.388Z,10.72
2023-02-18T01:11:24.284Z,10.72
2023-02-18T01:11:55.458Z,10.72
2023-02-18T01:12:28.283Z,10.72
2023-02-18T01:12:59.415Z,10.72
2023-02-18T01:13:32.178Z,10.72
2023-02-18T01:14:03.589Z,10.72
2023-02-18T01:14:36.280Z,10.72
2023-02-18T01:15:08.705Z,10.72
2023-02-18T01:15:40.546Z,10.61
2023-02-18T01:16:11.916Z,10.61
2023-02-18T01:16:44.217Z,10.61
2023-02-18T01:17:15.511Z,10.61
2023-02-18T01:17:48.365Z,10.61
2023-02-18T01:18:19.309Z,10.61
2023-02-18T01:18:52.254Z,10.61
2023-02-18T01:19:23.543Z,10.61
2023-02-18T01:19:56.413Z,10.50
2023-02-18T01:20:27.872Z,10.50
2023-02-18T01:21:00.298Z,10.50
2023-02-18T01:21:31.594Z,10.50
2023-02-18T01:22:04.265Z,10.50
2023-02-18T01:22:35.582Z,10.50
2023-02-18T01:23:08.424Z,10.50
2023-02-18T01:23:39.633Z,10.50
2023-02-18T01:24:12.132Z,10.38
2023-02-18T01:24:46.010Z,10.38
2023-02-18T01:25:16.604Z,10.38
2023-02-18T01:25:47.477Z,10.38
2023-02-18T01:26:20.370Z,10.38
2023-02-18T01:26:51.615Z,10.38
2023-02-18T01:27:24.170Z,10.38
2023-02-18T01:27:55.465Z,10.38
2023-02-18T01:28:28.277Z,10.38
2023-02-18T01:28:59.565Z,10.38
2023-02-18T01:29:32.352Z,10.38
2023-02-18T01:30:04.702Z,10.38
2023-02-18T01:30:36.711Z,10.27
2023-02-18T01:31:07.511Z,10.27
2023-02-18T01:31:40.309Z,10.27
2023-02-18T01:32:11.669Z,10.27
2023-02-18T01:32:44.389Z,10.27
2023-02-18T01:33:15.448Z,10.27
2023-02-18T01:33:48.377Z,10.27
2023-02-18T01:34:19.482Z,10.27
2023-02-18T01:34:52.092Z,10.22
2023-02-18T01:35:23.727Z,10.22
2023-02-18T01:35:56.236Z,10.22
2023-02-18T01:36:27.611Z,10.22
2023-02-18T01:37:00.295Z,10.22
2023-02-18T01:37:31.477Z,10.22
2023-02-18T01:38:04.467Z,10.22
2023-02-18T01:38:35.443Z,10.22
2023-02-18T01:39:08.236Z,10.11
2023-02-18T01:39:39.500Z,10.11
2023-02-18T01:40:12.606Z,10.11
2023-02-18T01:40:43.470Z,10.11
2023-02-18T01:41:16.324Z,10.11
2023-02-18T01:41:47.531Z,10.11
2023-02-18T01:42:20.184Z,10.11
2023-02-18T01:42:51.486Z,10.11
2023-02-18T01:43:24.263Z,10.11
2023-02-18T01:43:55.599Z,10.11
2023-02-18T01:44:28.386Z,10.00
2023-02-18T01:44:59.507Z,10.00
2023-02-18T01:45:33.461Z,10.00
2023-02-18T01:46:03.380Z,10.00
2023-02-18T01:46:36.632Z,10.11
2023-02-18T01:47:07.619Z,10.11
2023-02-18T01:47:40.292Z,10.00
2023-02-18T01:48:11.425Z,10.00
2023-02-18T01:48:44.331Z,10.00
2023-02-18T01:49:15.592Z,10.00
2023-02-18T01:49:48.244Z,10.00
2023-02-18T01:50:19.786Z,10.00
2023-02-18T01:50:52.337Z,10.00
2023-02-18T01:51:23.427Z,10.00
2023-02-18T01:51:56.350Z,10.00
2023-02-18T01:52:27.514Z,10.00
2023-02-18T01:53:00.486Z,10.00
2023-02-18T01:53:31.453Z,10.00
2023-02-18T01:54:04.126Z,10.00
2023-02-18T01:54:35.570Z,10.00
2023-02-18T01:55:08.675Z,10.00
2023-02-18T01:55:39.455Z,10.00
2023-02-18T01:56:12.309Z,10.00
2023-02-18T01:56:43.697Z,10.00
2023-02-18T01:57:16.354Z,10.00
2023-02-18T01:57:47.484Z,10.00
2023-02-18T01:58:20.381Z,10.00
2023-02-18T01:58:51.423Z,10.00
2023-02-18T01:59:24.308Z,10.00
2023-02-18T01:59:55.510Z,10.00
2023-02-18T02:00:29.702Z,10.00
2023-02-18T02:00:59.609Z,10.00
2023-02-18T02:01:32.426Z,10.00
2023-02-18T02:02:03.668Z,10.00
2023-02-18T02:02:36.406Z,10.11
2023-02-18T02:03:07.454Z,10.11
2023-02-18T02:03:40.248Z,10.00
2023-02-18T02:04:11.556Z,10.00
2023-02-18T02:04:44.322Z,10.11
2023-02-18T02:05:15.805Z,10.11
2023-02-18T02:05:48.386Z,10.11
2023-02-18T02:06:19.439Z,10.11
2023-02-18T02:06:54.399Z,10.11
2023-02-18T02:07:23.565Z,10.11
2023-02-18T02:07:56.401Z,10.11
2023-02-18T02:08:27.471Z,10.11
2023-02-18T02:09:00.298Z,10.11
2023-02-18T02:09:31.591Z,10.11
2023-02-18T02:10:04.823Z,10.11
2023-02-18T02:10:35.539Z,10.11
2023-02-18T02:11:08.566Z,10.11
2023-02-18T02:11:39.475Z,10.11
2023-02-18T02:12:12.309Z,10.11
2023-02-18T02:12:43.564Z,10.11
2023-02-18T02:13:16.337Z,10.11
2023-02-18T02:13:47.479Z,10.11
2023-02-18T02:14:20.413Z,10.11
2023-02-18T02:14:51.593Z,10.11
2023-02-18T02:15:25.379Z,10.11
2023-02-18T02:15:55.682Z,10.11
2023-02-18T02:16:28.537Z,10.00
2023-02-18T02:16:59.431Z,10.00
2023-02-18T02:17:32.342Z,10.11
2023-02-18T02:18:03.570Z,10.11
2023-02-18T02:18:36.464Z,10.11
2023-02-18T02:19:07.334Z,10.11
2023-02-18T02:19:40.288Z,10.00
2023-02-18T02:20:11.833Z,10.00
2023-02-18T02:20:44.214Z,10.11
2023-02-18T02:21:15.482Z,10.11
2023-02-18T02:21:48.339Z,10.00
2023-02-18T02:22:19.643Z,10.00
2023-02-18T02:22:52.386Z,10.00
2023-02-18T02:23:23.529Z,10.00
2023-02-18T02:23:56.506Z,10.00
2023-02-18T02:24:27.373Z,10.00
2023-02-18T02:25:00.162Z,10.11
2023-02-18T02:25:31.966Z,10.11
2023-02-18T02:26:04.713Z,10.11
2023-02-18T02:26:35.506Z,10.11
2023-02-18T02:27:08.456Z,10.00
2023-02-18T02:27:39.605Z,10.00
2023-02-18T02:28:12.099Z,10.00
2023-02-18T02:28:43.397Z,10.00
2023-02-18T02:29:16.236Z,10.00
2023-02-18T02:29:47.554Z,10.00
2023-02-18T02:30:21.327Z,10.11
2023-02-18T02:30:51.741Z,10.11
2023-02-18T02:31:24.592Z,10.00
2023-02-18T02:31:55.363Z,10.00
2023-02-18T02:32:28.512Z,10.00
2023-02-18T02:32:59.527Z,10.00
2023-02-18T02:33:32.514Z,10.00
2023-02-18T02:34:03.370Z,10.00
2023-02-18T02:34:36.497Z,10.00
2023-02-18T02:35:07.745Z,10.00
2023-02-18T02:35:40.222Z,10.11
2023-02-18T02:36:11.481Z,10.11
2023-02-18T02:36:45.168Z,10.11
2023-02-18T02:37:15.641Z,10.11
2023-02-18T02:37:48.488Z,10.00
2023-02-18T02:38:19.570Z,10.00
2023-02-18T02:38:52.384Z,10.00
2023-02-18T02:39:23.522Z,10.00
2023-02-18T02:39:56.218Z,10.11
2023-02-18T02:40:27.882Z,10.11
2023-02-18T02:41:00.453Z,10.11
2023-02-18T02:41:31.515Z,10.11
2023-02-18T02:42:04.522Z,10.11
2023-02-18T02:42:35.576Z,10.11
2023-02-18T02:43:08.246Z,10.11
2023-02-18T02:43:39.498Z,10.11
2023-02-18T02:44:12.570Z,10.11
2023-02-18T02:44:43.617Z,10.11
2023-02-18T02:45:17.262Z,10.11
2023-02-18T02:45:47.746Z,10.11
2023-02-18T02:46:20.585Z,10.22
2023-02-18T02:46:51.610Z,10.22
2023-02-18T02:47:24.514Z,10.22
2023-02-18T02:47:55.583Z,10.22
2023-02-18T02:48:29.385Z,10.22
2023-02-18T02:48:59.597Z,10.22
2023-02-18T02:49:32.451Z,10.22
2023-02-18T02:50:03.826Z,10.22
2023-02-18T02:50:36.221Z,10.22
2023-02-18T02:51:07.557Z,10.22
2023-02-18T02:51:40.595Z,10.22
2023-02-18T02:52:11.695Z,10.22
2023-02-18T02:52:44.685Z,10.22
2023-02-18T02:53:15.546Z,10.22
2023-02-18T02:53:48.396Z,10.27
2023-02-18T02:54:19.498Z,10.27
2023-02-18T02:54:52.406Z,10.27
2023-02-18T02:55:23.951Z,10.27
2023-02-18T02:55:56.221Z,10.27
2023-02-18T02:56:27.565Z,10.27
2023-02-18T02:57:00.409Z,10.27
2023-02-18T02:57:31.595Z,10.27
2023-02-18T02:58:06.308Z,10.27
2023-02-18T02:58:35.505Z,10.27
2023-02-18T02:59:08.328Z,10.27
2023-02-18T02:59:39.589Z,10.27
2023-02-18T03:00:13.548Z,10.38
2023-02-18T03:00:43.679Z,10.38
2023-02-18T03:01:16.561Z,10.38
2023-02-18T03:01:47.498Z,10.38
2023-02-18T03:02:20.531Z,10.38
2023-02-18T03:02:51.624Z,10.38
2023-02-18T03:03:24.573Z,10.38
2023-02-18T03:03:55.434Z,10.38
2023-02-18T03:04:28.503Z,10.38
2023-02-18T03:04:59.562Z,10.38
2023-02-18T03:05:32.655Z,10.50
2023-02-18T03:06:03.455Z,10.50
2023-02-18T03:06:36.493Z,10.38
2023-02-18T03:07:07.424Z,10.38
2023-02-18T03:07:40.414Z,10.50
2023-02-18T03:08:11.491Z,10.50
2023-02-18T03:08:44.393Z,10.50
2023-02-18T03:09:15.425Z,10.50
2023-02-18T03:09:48.309Z,10.50
2023-02-18T03:10:20.049Z,10.50
2023-02-18T03:10:52.261Z,10.50
2023-02-18T03:11:23.460Z,10.50
2023-02-18T03:11:56.357Z,10.50
2023-02-18T03:12:27.677Z,10.50
2023-02-18T03:13:00.436Z,10.50
2023-02-18T03:13:31.523Z,10.50
2023-02-18T03:14:04.434Z,10.50
2023-02-18T03:14:35.314Z,10.50
2023-02-18T03:15:09.403Z,10.50
2023-02-18T03:15:39.633Z,10.50
2023-02-18T03:16:12.634Z,10.50
2023-02-18T03:16:43.586Z,10.50
2023-02-18T03:17:16.432Z,10.50
2023-02-18T03:17:47.597Z,10.50
2023-02-18T03:18:21.398Z,10.50
2023-02-18T03:18:51.498Z,10.50
2023-02-18T03:19:24.313Z,10.50
2023-02-18T03:19:55.610Z,10.50
2023-02-18T03:20:28.703Z,10.50
2023-02-18T03:20:59.573Z,10.50
2023-02-18T03:21:32.538Z,10.61
2023-02-18T03:22:03.441Z,10.61
2023-02-18T03:22:36.423Z,10.61
2023-02-18T03:23:07.622Z,10.61
2023-02-18T03:23:40.362Z,10.50
2023-02-18T03:24:11.471Z,10.50
2023-02-18T03:24:44.373Z,10.50
2023-02-18T03:25:15.817Z,10.50
2023-02-18T03:25:50.016Z,10.61
2023-02-18T03:26:19.510Z,10.61
2023-02-18T03:26:52.304Z,10.61
2023-02-18T03:27:23.543Z,10.61
2023-02-18T03:27:56.374Z,10.61
2023-02-18T03:28:27.548Z,10.61
2023-02-18T03:29:00.379Z,10.61
2023-02-18T03:29:31.461Z,10.61
2023-02-18T03:30:05.519Z,10.61
2023-02-18T03:30:35.702Z,10.61
2023-02-18T03:31:08.436Z,10.50
2023-02-18T03:31:39.573Z,10.50
2023-02-18T03:32:12.475Z,10.50
2023-02-18T03:32:43.651Z,10.50
2023-02-18T03:33:16.448Z,10.50
2023-02-18T03:33:47.522Z,10.50
2023-02-18T03:34:20.314Z,10.50
2023-02-18T03:34:51.624Z,10.50
2023-02-18T03:35:29.656Z,10.50
2023-02-18T03:35:55.508Z,10.50
2023-02-18T03:36:27.500Z,10.50
2023-02-18T03:36:59.503Z,10.50
2023-02-18T03:37:31.528Z,10.61
2023-02-18T03:38:03.492Z,10.61
2023-02-18T03:38:35.634Z,10.61
2023-02-18T03:39:07.479Z,10.61
2023-02-18T03:39:39.755Z,10.61
2023-02-18T03:40:11.842Z,10.61
2023-02-18T03:40:43.553Z,10.61
2023-02-18T03:41:16.334Z,10.61
2023-02-18T03:41:47.539Z,10.61
2023-02-18T03:42:20.253Z,10.61
2023-02-18T03:42:51.487Z,10.50
2023-02-18T03:43:24.536Z,10.50
2023-02-18T03:43:55.550Z,10.61
2023-02-18T03:44:28.242Z,10.61
2023-02-18T03:44:59.515Z,10.61
2023-02-18T03:45:33.721Z,10.61
2023-02-18T03:46:03.520Z,10.61
2023-02-18T03:46:36.421Z,10.61
2023-02-18T03:47:07.592Z,10.61
2023-02-18T03:47:40.429Z,10.61
2023-02-18T03:48:11.393Z,10.61
2023-02-18T03:48:44.351Z,10.61
2023-02-18T03:49:15.540Z,10.61
2023-02-18T03:49:48.447Z,10.61
2023-02-18T03:50:19.900Z,10.61
2023-02-18T03:50:52.479Z,10.61
2023-02-18T03:51:23.401Z,10.61
2023-02-18T03:51:56.285Z,10.61
2023-02-18T03:52:27.496Z,10.61
2023-02-18T03:53:00.521Z,10.61
2023-02-18T03:53:31.561Z,10.61
2023-02-18T03:54:05.410Z,10.61
2023-02-18T03:54:35.506Z,10.61
2023-02-18T03:55:08.408Z,10.61
2023-02-18T03:55:39.535Z,10.61
2023-02-18T03:56:12.286Z,10.61
2023-02-18T03:56:43.630Z,10.61
2023-02-18T03:57:16.362Z,10.61
2023-02-18T03:57:47.469Z,10.61
2023-02-18T03:58:20.512Z,10.61
2023-02-18T03:58:51.628Z,10.61
2023-02-18T03:59:24.345Z,10.61
2023-02-18T03:59:55.522Z,10.61
2023-02-18T04:00:30.771Z,10.61
2023-02-18T04:00:59.666Z,10.61
2023-02-18T04:01:32.702Z,10.61
2023-02-18T04:02:03.654Z,10.61
2023-02-18T04:02:36.560Z,10.61
2023-02-18T04:03:07.453Z,10.61
2023-02-18T04:03:40.312Z,10.61
2023-02-18T04:04:11.554Z,10.61
2023-02-18T04:04:44.293Z,10.61
2023-02-18T04:05:15.889Z,10.61
2023-02-18T04:05:49.384Z,10.61
2023-02-18T04:06:19.363Z,10.61
2023-02-18T04:06:53.201Z,10.61
2023-02-18T04:07:23.479Z,10.61
2023-02-18T04:07:56.501Z,10.61
2023-02-18T04:08:27.402Z,10.50
2023-02-18T04:09:00.565Z,10.50
2023-02-18T04:09:31.630Z,10.50
2023-02-18T04:10:04.634Z,10.50
2023-02-18T04:10:35.482Z,10.50
2023-02-18T04:11:08.504Z,10.50
2023-02-18T04:11:39.654Z,10.50
2023-02-18T04:12:12.999Z,10.50
2023-02-18T04:12:43.524Z,10.50
2023-02-18T04:13:17.608Z,10.50
2023-02-18T04:13:47.439Z,10.50
2023-02-18T04:14:20.524Z,10.50
2023-02-18T04:14:51.548Z,10.50
2023-02-18T04:15:25.676Z,10.50
2023-02-18T04:15:55.510Z,10.50
2023-02-18T04:16:28.553Z,10.50
2023-02-18T04:16:59.631Z,10.38
2023-02-18T04:17:32.364Z,10.38
2023-02-18T04:18:03.507Z,10.50
2023-02-18T04:18:36.559Z,10.50
2023-02-18T04:19:07.644Z,10.50
2023-02-18T04:19:40.271Z,10.50
2023-02-18T04:20:11.837Z,10.50
2023-02-18T04:20:44.522Z,10.50
2023-02-18T04:21:15.491Z,10.38
2023-02-18T04:21:48.378Z,10.38
2023-02-18T04:22:19.591Z,10.50
2023-02-18T04:22:52.394Z,10.50
2023-02-18T04:23:23.409Z,10.38
2023-02-18T04:23:56.390Z,10.38
2023-02-18T04:24:27.544Z,10.38
2023-02-18T04:25:00.628Z,10.38
2023-02-18T04:25:31.581Z,10.38
2023-02-18T04:26:04.474Z,10.38
2023-02-18T04:26:35.625Z,10.50
2023-02-18T04:27:08.362Z,10.50
2023-02-18T04:27:39.520Z,10.38
2023-02-18T04:28:12.616Z,10.38
2023-02-18T04:28:43.447Z,10.50
2023-02-18T04:29:16.491Z,10.50
2023-02-18T04:29:47.525Z,10.50
2023-02-18T04:30:21.436Z,10.50
2023-02-18T04:30:51.767Z,10.50
2023-02-18T04:31:24.632Z,10.50
2023-02-18T04:31:55.786Z,10.38
2023-02-18T04:32:28.378Z,10.38
2023-02-18T04:32:59.542Z,10.38
2023-02-18T04:33:35.506Z,10.38
2023-02-18T04:34:03.620Z,10.38
2023-02-18T04:34:36.259Z,10.38
2023-02-18T04:35:07.808Z,10.38
2023-02-18T04:35:41.969Z,10.38
2023-02-18T04:36:11.484Z,10.38
2023-02-18T04:36:44.409Z,10.38
2023-02-18T04:37:15.562Z,10.50
2023-02-18T04:37:48.538Z,10.50
2023-02-18T04:38:19.519Z,10.50
2023-02-18T04:38:52.545Z,10.50
2023-02-18T04:39:23.708Z,10.50
2023-02-18T04:39:56.219Z,10.50
2023-02-18T04:40:27.845Z,10.50
2023-02-18T04:41:00.457Z,10.50
2023-02-18T04:41:31.542Z,10.50
2023-02-18T04:42:04.457Z,10.50
2023-02-18T04:42:35.556Z,10.50
2023-02-18T04:43:08.490Z,10.50
2023-02-18T04:43:39.487Z,10.50
2023-02-18T04:44:12.335Z,10.50
2023-02-18T04:44:44.717Z,10.50
2023-02-18T04:45:17.201Z,10.50
2023-02-18T04:45:47.617Z,10.50
2023-02-18T04:46:20.291Z,10.50
2023-02-18T04:46:51.564Z,10.50
2023-02-18T04:47:24.373Z,10.50
2023-02-18T04:47:55.516Z,10.50
2023-02-18T04:48:28.471Z,10.50
2023-02-18T04:48:59.457Z,10.50
2023-02-18T04:49:35.303Z,10.50
2023-02-18T04:50:03.708Z,10.50
2023-02-18T04:50:36.379Z,10.50
2023-02-18T04:51:07.476Z,10.50
2023-02-18T04:51:41.202Z,10.50
2023-02-18T04:52:11.609Z,10.50
2023-02-18T04:52:44.439Z,10.50
2023-02-18T04:53:15.498Z,10.50
2023-02-18T04:53:48.483Z,10.50
2023-02-18T04:54:19.683Z,10.50
2023-02-18T04:54:52.343Z,10.50
2023-02-18T04:55:23.914Z,10.61
2023-02-18T04:55:56.515Z,10.61
2023-02-18T04:56:27.461Z,10.50
2023-02-18T04:57:00.521Z,10.50
2023-02-18T04:57:31.557Z,10.61
2023-02-18T04:58:05.384Z,10.61
2023-02-18T04:58:35.496Z,10.50
2023-02-18T04:59:08.443Z,10.50
2023-02-18T04:59:39.584Z,10.61
2023-02-18T05:00:13.498Z,10.61
2023-02-18T05:00:43.465Z,10.50
2023-02-18T05:01:17.451Z,10.50
2023-02-18T05:01:47.650Z,10.50
2023-02-18T05:02:20.261Z,10.50
2023-02-18T05:02:51.621Z,10.50
2023-02-18T05:03:24.380Z,10.50
2023-02-18T05:03:55.737Z,10.50
2023-02-18T05:04:28.631Z,10.50
2023-02-18T05:04:59.558Z,10.50
2023-02-18T05:05:32.804Z,10.50
2023-02-18T05:06:03.455Z,10.50
2023-02-18T05:06:36.344Z,10.50
2023-02-18T05:07:07.658Z,10.50
2023-02-18T05:07:40.341Z,10.50
2023-02-18T05:08:11.541Z,10.50
2023-02-18T05:08:44.334Z,10.50
2023-02-18T05:09:15.679Z,10.50
2023-02-18T05:09:49.302Z,10.50
2023-02-18T05:10:19.858Z,10.38
2023-02-18T05:10:52.616Z,10.38
2023-02-18T05:11:23.493Z,10.38
2023-02-18T05:11:56.343Z,10.38
2023-02-18T05:12:27.594Z,10.38
2023-02-18T05:13:00.429Z,10.38
2023-02-18T05:13:31.556Z,10.27
2023-02-18T05:14:04.402Z,10.27
2023-02-18T05:14:35.610Z,10.27
2023-02-18T05:15:09.404Z,10.27
2023-02-18T05:15:39.695Z,10.27
2023-02-18T05:16:12.641Z,10.27
2023-02-18T05:16:43.746Z,10.27
2023-02-18T05:17:16.850Z,10.27
2023-02-18T05:17:47.547Z,10.22
2023-02-18T05:18:20.390Z,10.22
2023-02-18T05:18:51.540Z,10.22
2023-02-18T05:19:24.473Z,10.22
2023-02-18T05:19:55.760Z,10.22
2023-02-18T05:20:28.728Z,10.22
2023-02-18T05:20:59.702Z,10.11
2023-02-18T05:21:32.453Z,10.11
2023-02-18T05:22:03.709Z,10.11
2023-02-18T05:22:36.597Z,10.11
2023-02-18T05:23:07.538Z,10.11
2023-02-18T05:23:40.551Z,10.11
2023-02-18T05:24:11.581Z,10.11
2023-02-18T05:24:44.650Z,10.11
2023-02-18T05:25:15.936Z,10.00
2023-02-18T05:25:48.445Z,10.00
2023-02-18T05:26:19.513Z,10.00
2023-02-18T05:26:52.355Z,10.00
2023-02-18T05:27:23.600Z,10.00
2023-02-18T05:27:58.176Z,10.00
2023-02-18T05:28:27.555Z,10.00
2023-02-18T05:29:00.478Z,10.00
2023-02-18T05:29:31.609Z,10.00
2023-02-18T05:30:05.831Z,10.00
2023-02-18T05:30:35.772Z,10.00
2023-02-18T05:31:08.641Z,10.00
2023-02-18T05:31:39.640Z,10.00
2023-02-18T05:32:12.543Z,10.00
2023-02-18T05:32:43.638Z,10.00
2023-02-18T05:33:16.288Z,10.00
2023-02-18T05:33:47.464Z,10.00
2023-02-18T05:34:20.361Z,10.00
2023-02-18T05:34:51.681Z,10.00
2023-02-18T05:35:24.522Z,10.00
2023-02-18T05:35:55.595Z,10.00
2023-02-18T05:36:29.310Z,10.00
2023-02-18T05:36:59.523Z,10.00
2023-02-18T05:37:32.385Z,10.00
2023-02-18T05:38:03.507Z,10.00
2023-02-18T05:38:36.542Z,10.00
2023-02-18T05:39:07.500Z,10.00
2023-02-18T05:39:40.514Z,10.00
2023-02-18T05:40:11.859Z,10.00
2023-02-18T05:40:44.485Z,10.00
2023-02-18T05:41:15.517Z,10.00
2023-02-18T05:41:48.617Z,10.00
2023-02-18T05:42:19.474Z,10.00
2023-02-18T05:42:52.594Z,10.00
2023-02-18T05:43:23.655Z,10.00
2023-02-18T05:43:56.315Z,10.00
2023-02-18T05:44:27.436Z,10.00
2023-02-18T05:45:01.773Z,10.00
2023-02-18T05:45:31.690Z,10.00
2023-02-18T05:46:05.462Z,10.00
2023-02-18T05:46:35.633Z,10.00
2023-02-18T05:47:11.082Z,10.00
2023-02-18T05:47:39.682Z,10.00
2023-02-18T05:48:12.162Z,10.00
2023-02-18T05:48:43.649Z,10.00
2023-02-18T05:49:16.378Z,10.00
2023-02-18T05:49:47.768Z,10.00
2023-02-18T05:50:20.730Z,10.00
2023-02-18T05:50:51.642Z,10.00
2023-02-18T05:51:24.511Z,10.00
2023-02-18T05:51:55.526Z,10.00
2023-02-18T05:52:28.658Z,10.00
2023-02-18T05:52:59.704Z,10.00
2023-02-18T05:53:32.338Z,10.00
2023-02-18T05:54:03.575Z,10.00
2023-02-18T05:54:36.755Z,10.00
2023-02-18T05:55:07.703Z,10.00
2023-02-18T05:55:40.658Z,10.00
2023-02-18T05:56:11.607Z,10.00
2023-02-18T05:56:45.494Z,10.00
2023-02-18T05:57:15.603Z,10.00
2023-02-18T05:57:48.667Z,10.00
2023-02-18T05:58:19.707Z,10.00
2023-02-18T05:58:53.557Z,10.00
2023-02-18T05:59:23.505Z,10.00
2023-02-18T05:59:59.283Z,10.00
2023-02-18T06:00:28.664Z,10.00
2023-02-18T06:01:01.189Z,10.00
2023-02-18T06:01:31.669Z,10.00
2023-02-18T06:02:04.576Z,10.00
2023-02-18T06:02:35.587Z,10.11
2023-02-18T06:03:08.331Z,10.11
2023-02-18T06:03:39.629Z,10.11
2023-02-18T06:04:12.561Z,10.11
2023-02-18T06:04:43.580Z,10.11
2023-02-18T06:05:16.653Z,10.11
2023-02-18T06:05:47.737Z,10.11
2023-02-18T06:06:20.229Z,10.11
2023-02-18T06:06:51.532Z,10.11
2023-02-18T06:07:25.352Z,10.11
2023-02-18T06:07:56.685Z,10.11
2023-02-18T06:08:28.296Z,10.11
2023-02-18T06:08:59.614Z,10.11
2023-02-18T06:09:32.459Z,10.11
2023-02-18T06:10:03.807Z,10.11
2023-02-18T06:10:36.498Z,10.11
2023-02-18T06:11:07.617Z,10.22
2023-02-18T06:11:40.496Z,10.22
2023-02-18T06:12:11.509Z,10.22
2023-02-18T06:12:44.601Z,10.22
2023-02-18T06:13:15.618Z,10.22
2023-02-18T06:13:48.253Z,10.22
2023-02-18T06:14:19.523Z,10.22
2023-02-18T06:14:52.489Z,10.22
2023-02-18T06:15:24.690Z,10.22
2023-02-18T06:15:56.752Z,10.22
2023-02-18T06:16:27.707Z,10.22
2023-02-18T06:17:00.570Z,10.22
2023-02-18T06:17:31.516Z,10.22
2023-02-18T06:18:04.558Z,10.22
2023-02-18T06:18:35.651Z,10.22
2023-02-18T06:19:08.382Z,10.22
2023-02-18T06:19:39.494Z,10.27
2023-02-18T06:20:12.753Z,10.27
2023-02-18T06:20:43.703Z,10.27
2023-02-18T06:21:16.422Z,10.27
2023-02-18T06:21:47.537Z,10.27
2023-02-18T06:22:20.446Z,10.27
2023-02-18T06:22:51.659Z,10.27
2023-02-18T06:23:26.689Z,10.27
2023-02-18T06:23:55.715Z,10.27
2023-02-18T06:24:28.721Z,10.27
2023-02-18T06:24:59.929Z,10.27
2023-02-18T06:25:33.077Z,10.27
2023-02-18T06:26:03.992Z,10.27
2023-02-18T06:26:39.757Z,10.27
2023-02-18T06:27:07.879Z,10.27
2023-02-18T06:27:41.905Z,10.27
2023-02-18T06:28:12.180Z,10.27
2023-02-18T06:28:44.805Z,10.27
2023-02-18T06:29:16.020Z,10.38
2023-02-18T06:29:48.738Z,10.38
2023-02-18T06:30:22.007Z,10.38
2023-02-18T06:30:52.814Z,10.38
2023-02-18T06:31:24.148Z,10.38
2023-02-18T06:31:57.237Z,10.38
2023-02-18T06:32:27.731Z,10.38
2023-02-18T06:33:00.913Z,10.38
2023-02-18T06:33:31.961Z,10.38
2023-02-18T06:34:04.779Z,10.38
2023-02-18T06:34:35.832Z,10.38
2023-02-18T06:35:08.865Z,10.38
2023-02-18T06:35:39.824Z,10.38
2023-02-18T06:36:14.458Z,10.38
2023-02-18T06:36:43.800Z,10.38
2023-02-18T06:37:17.009Z,10.38
2023-02-18T06:37:47.898Z,10.50
2023-02-18T06:38:21.627Z,10.50
2023-02-18T06:38:51.777Z,10.38
2023-02-18T06:39:25.614Z,10.38
2023-02-18T06:39:55.770Z,10.50
2023-02-18T06:40:29.182Z,10.50
2023-02-18T06:40:59.934Z,10.50
2023-02-18T06:41:32.735Z,10.50
2023-02-18T06:42:03.789Z,10.50
2023-02-18T06:42:36.847Z,10.50
2023-02-18T06:43:08.016Z,10.50
2023-02-18T06:43:40.756Z,10.50
2023-02-18T06:44:11.916Z,10.50
2023-02-18T06:44:44.753Z,10.50
2023-02-18T06:45:16.576Z,10.50
2023-02-18T06:45:49.645Z,10.50
2023-02-18T06:46:19.817Z,10.50
2023-02-18T06:46:52.686Z,10.50
2023-02-18T06:47:23.720Z,10.61
2023-02-18T06:47:56.767Z,10.61
2023-02-18T06:48:27.833Z,10.50
2023-02-18T06:49:00.566Z,10.50
2023-02-18T06:49:31.746Z,10.61
2023-02-18T06:50:04.637Z,10.61
2023-02-18T06:50:35.851Z,10.61
2023-02-18T06:51:09.444Z,10.61
2023-02-18T06:51:39.700Z,10.61
2023-02-18T06:52:12.705Z,10.61